Flight Track Log - Related Links

Times and Time Zones

All times are in EDT time to prevent confusion due to time zone crossing. See the N41166 flight status page for this flight to view local times or setup timezone preferences in your user account.

Time Position Orientation Groundspeed Altitude Reporting Facility
EDT Latitude Longitude Course Direction KTS MPH feet Rate Location/Type
Wed 01:20:00 PM 41.3308 -70.3513 283° West  Level FlightAware Approximate
Wed 01:21:00 PM 41.3515 -70.3932 282° West  Level FlightAware Approximate
Wed 01:22:00 PM 41.3596 -70.4456 282° West  Level FlightAware Approximate
Wed 01:23:00 PM 41.3677 -70.4980 282° West  Level FlightAware Approximate
Wed 01:24:00 PM 41.3758 -70.5505 282° West  Level FlightAware Approximate
Wed 01:25:00 PM 41.3844 -70.6027 298° West  Level FlightAware Approximate
Wed 01:26:00 PM 41.4029 -70.6502 298° West  Level FlightAware Approximate
Wed 01:27:00 PM 41.4215 -70.6977 297° West  Level FlightAware Approximate
Wed 01:28:00 PM 41.4400 -70.7453 297° West  Level FlightAware Approximate
Wed 01:29:00 PM 41.4585 -70.7929 297° West  Level FlightAware Approximate
Wed 01:30:00 PM 41.4770 -70.8405 297° West  Level FlightAware Approximate
Wed 01:30:20 PM 41.4394 -70.7400 302° West 160 184 8,000  Level Boston Center
Wed 01:31:00 PM 41.4954 -70.8881 297° West  Level FlightAware Approximate
Wed 01:31:33 PM 41.4631 -70.8031 297° West 160 184 8,000  Level Boston Center
Wed 01:32:00 PM 41.5123 -70.9368 294° West  Level FlightAware Approximate
Wed 01:32:34 PM 41.4847 -70.8522 300° West 159 183 8,000  Level Boston Center
Wed 01:33:00 PM 41.5322 -70.9833 302° West  Level FlightAware Approximate
Wed 01:33:35 PM 41.5083 -70.9100 299° West 161 185 8,100  Level Boston Center
Wed 01:34:00 PM 41.5535 -71.0288 302° West  Level FlightAware Approximate
Wed 01:34:36 PM 41.5156 -70.9625 280° West 151 174 8,300  Level Boston Center
Wed 01:35:00 PM 41.5748 -71.0743 302° West  Level FlightAware Approximate
Wed 01:35:37 PM 41.5097 -71.0125 261° West 141 162 8,500  Level Boston Center
Wed 01:36:38 PM 41.5042 -71.0653 262° West 147 169 8,500  Level Boston Center
Wed 01:37:39 PM 41.5008 -71.1264 266° West 161 185 8,500 50 Level Boston Center
Wed 01:38:39 PM 41.4953 -71.1875 263° West 155 178 8,600  Climbing Boston Center
Wed 01:39:40 PM 41.4936 -71.2428 268° West 153 176 8,500 -49 Descending Boston Center
Wed 01:40:41 PM 41.4900 -71.2956 265° West 151 174 8,500 49 Level Boston Center
Wed 01:41:42 PM 41.4844 -71.3511 262° West 151 174 8,600  Climbing Boston Center
Wed 01:42:43 PM 41.4808 -71.4094 265° West 150 173 8,500  Descending Boston Center
Wed 01:43:44 PM 41.4772 -71.4675 265° West 150 173 8,600 47 Climbing Boston Center
Wed 01:44:51 PM 41.4733 -71.5286 265° West 151 174 8,600  Level Boston Center
Wed 01:45:52 PM 41.4697 -71.5814 265° West 149 171 8,600 -49 Level Boston Center
Wed 01:46:53 PM 41.4639 -71.6422 263° West 149 171 8,500 -49 Descending Boston Center
Wed 01:47:54 PM 41.4622 -71.6978 268° West 149 171 8,500  Level Boston Center
Wed 01:48:54 PM 41.4583 -71.7503 264° West 148 170 8,500 50 Level Boston Center
Wed 01:49:55 PM 41.4544 -71.8058 265° West 149 171 8,600 52 Climbing Boston Center
Wed 01:50:50 PM 41.4506 -71.8558 264° West 148 170 8,600 -52 Level Boston Center
Wed 01:51:51 PM 41.4467 -71.9139 265° West 148 170 8,500 -49 Descending Boston Center
Wed 01:52:52 PM 41.4428 -71.9667 264° West 146 168 8,500  Level Boston Center
Wed 01:53:52 PM 41.4367 -72.0219 262° West 147 169 8,500  Level Boston Center
Wed 01:54:53 PM 41.4350 -72.0747 268° West 147 169 8,500  Level Boston Center
Wed 01:55:54 PM 41.4308 -72.1300 264° West 148 170 8,500 49 Level Boston Center
Wed 01:56:55 PM 41.4228 -72.1881 260° West 149 171 8,600 49 Climbing Boston Center
Wed 01:57:56 PM 41.4186 -72.2436 264° West 146 168 8,600 -50 Level Boston Center
Wed 01:58:56 PM 41.4144 -72.2961 264° West 151 174 8,500 -50 Descending Boston Center
Wed 01:59:57 PM 41.4125 -72.3542 267° West 151 174 8,500 47 Level Boston Center
Wed 02:01:04 PM 41.4106 -72.4153 268° West 148 170 8,600  Climbing Boston Center
Wed 02:03:25 PM 41.4000 -72.5333 263° West 149 171 8,500 -30 Descending New York TRACON
Wed 02:04:25 PM 41.4000 -72.6000 270° West 151 174 8,500  Level New York TRACON
Wed 02:05:20 PM 41.3833 -72.6500 246° West 152 175 8,500  Level New York TRACON
Wed 02:06:21 PM 41.3833 -72.7000 270° West 149 171 8,500  Level New York TRACON
Wed 02:07:20 PM 41.3833 -72.7500 270° West 151 174 8,500  Level New York TRACON
Wed 02:08:20 PM 41.3667 -72.8167 252° West 151 174 8,500  Level New York TRACON
Wed 02:09:20 PM 41.3667 -72.8667 270° West 150 173 8,500  Level New York TRACON
Wed 02:10:20 PM 41.3667 -72.9167 270° West 157 181 8,500  Level New York TRACON
Wed 02:11:19 PM 41.3667 -72.9833 270° West 152 175 8,500  Level New York TRACON
Wed 02:12:19 PM 41.3500 -73.0333 246° West 152 175 8,500  Level New York TRACON
Wed 02:13:20 PM 41.3500 -73.0833 270° West 151 174 8,500 50 Level New York TRACON
Wed 02:14:20 PM 41.3500 -73.1500 270° West 154 177 8,600  Climbing New York TRACON
Wed 02:15:20 PM 41.3500 -73.2000 270° West 152 175 8,500 -50 Descending New York TRACON
Wed 02:16:20 PM 41.3333 -73.2500 246° West 153 176 8,500  Level New York TRACON
Wed 02:17:20 PM 41.3333 -73.3167 270° West 153 176 8,500  Level New York TRACON
Wed 02:18:20 PM 41.3167 -73.3667 246° West 156 180 8,500  Level New York TRACON
Wed 02:19:20 PM 41.3000 -73.4167 246° West 153 176 8,500 50 Level New York TRACON
Wed 02:20:20 PM 41.2833 -73.4667 246° West 155 178 8,600  Climbing New York TRACON
Wed 02:21:20 PM 41.2833 -73.5167 270° West 158 182 8,500  Descending New York TRACON
Wed 02:22:19 PM 41.2833 -73.5833 270° West 156 180 8,600  Climbing New York TRACON
Wed 02:23:19 PM 41.2833 -73.6333 270° West 155 178 8,500 -50 Descending New York TRACON
Wed 02:24:20 PM 41.2667 -73.7000 252° West 157 181 8,500  Level New York TRACON
Wed 02:26:19 PM 41.2500 -73.8000 258° West 153 176 8,500 33 Level New York TRACON
Wed 02:27:20 PM 41.2167 -73.8500 228° Southwest 151 174 8,600 50 Climbing New York TRACON
Wed 02:28:20 PM 41.2000 -73.9000 246° West 154 177 8,600 -50 Level New York TRACON
Wed 02:29:20 PM 41.1833 -73.9500 246° West 156 180 8,500 -50 Descending New York TRACON
Wed 02:30:20 PM 41.1833 -74.0000 270° West 154 177 8,500  Level New York TRACON
Wed 02:31:20 PM 41.1667 -74.0667 252° West 158 182 8,500  Level New York TRACON
Wed 02:32:20 PM 41.1667 -74.1167 270° West 160 184 8,500  Level New York TRACON
Wed 02:33:20 PM 41.1667 -74.1833 270° West 160 184 8,500  Level New York TRACON
Wed 02:34:26 PM 41.1667 -74.2500 270° West 158 182 8,500 48 Level New York TRACON
Wed 02:35:26 PM 41.1667 -74.3000 270° West 162 186 8,600  Climbing New York TRACON
Wed 02:36:26 PM 41.1667 -74.3667 270° West 162 186 8,500  Descending New York TRACON
Wed 02:37:20 PM 41.1500 -74.4167 246° West 158 182 8,600  Climbing New York TRACON
Wed 02:38:20 PM 41.1500 -74.4667 270° West 160 184 8,500 -48 Descending New York TRACON
Wed 02:39:26 PM 41.1500 -74.5333 270° West 160 184 8,500 -238 Level New York TRACON
Wed 02:40:26 PM 41.1667 -74.6000 288° West 169 194 8,000 -600 Descending New York TRACON
Wed 02:41:26 PM 41.1667 -74.6500 270° West 175 201 7,300 -750 Descending New York TRACON
Wed 02:42:26 PM 41.1833 -74.7167 288° West 179 206 6,500 -850 Descending New York TRACON
Wed 02:43:26 PM 41.2167 -74.7667 312° West 177 204 5,600 -900 Descending New York TRACON
Wed 02:45:00 PM 41.1597 -74.8094 209° Southwest  Level FlightAware Approximate
Wed 02:52:00 PM 41.1333 -75.1834 270° West  Level FlightAware Approximate
Wed 02:53:00 PM 41.1334 -75.2388 270° West  Level FlightAware Approximate
Wed 02:54:00 PM 41.1334 -75.2943 270° West  Level FlightAware Approximate
Wed 02:55:00 PM 41.1333 -75.3497 270° West  Level FlightAware Approximate
Wed 02:56:00 PM 41.1333 -75.3667 270° West  Level FlightAware Approximate
Wed 02:57:00 PM 41.1377 -75.3801 270° West  Level Estimated
Wed 02:58:00 PM 41.1377 -75.3801 270° West  Level Estimated
Wed 02:59:00 PM 41.1377 -75.3801 270° West  Level Estimated
Wed 03:00:00 PM 41.1377 -75.3801 270° West  Level Estimated
Wed 03:01:00 PM 41.1377 -75.3801 270° West  Level Estimated
Wed 03:02:00 PM 41.1377 -75.3801 270° West  Level Estimated
Wed 03:03:00 PM 41.1377 -75.3801 270° West  Level Estimated
Wed 03:04:00 PM 41.1377 -75.3801 270° West  Level Estimated
Wed 03:05:00 PM 41.1377 -75.3801 270° West  Level Estimated
Wed 03:06:00 PM 41.1377 -75.3801 270° West  Level Estimated
Wed 03:07:00 PM 41.1377 -75.3801 270° West  Level Estimated
Wed 03:08:00 PM 41.1377 -75.3801 270° West  Level Estimated
Wed 03:09:00 PM 41.1377 -75.3801 270° West  Level Estimated
Wed 03:10:00 PM 41.1377 -75.3801 270° West  Level Estimated
Wed 03:11:00 PM 41.1377 -75.3801 270° West  Level Estimated

Login

Don't have an account? Register now (free) for customized features, flight alerts, and more!